Time;durP1;ratioP1;P1;durP2;ratioP2;P2;SDS_P1;SDS_P2;PMS_P1;PMS_P2;Temp;Humidity;BMP_temperature;BMP_pressure;BME280_temperature;BME280_humidity;BME280_pressure;Samples;Min_cycle;Max_cycle;Signal;HPM_P1;HPM_P2
2022/12/21 00:01:38;;;;;;;558.47;50.83;;;7.70;99.90;;;;;;5010482;28;20489;-74
2022/12/21 00:04:04;;;;;;;331.63;38.77;;;7.60;99.90;;;;;;5027677;28;20982;-74
2022/12/21 00:06:33;;;;;;;429.40;43.50;;;7.70;99.90;;;;;;5027691;28;21117;-74
2022/12/21 00:09:00;;;;;;;363.52;40.03;;;7.60;99.90;;;;;;5009314;28;20439;-74
2022/12/21 00:11:28;;;;;;;356.07;39.67;;;7.60;99.90;;;;;;5022404;28;20777;-74
2022/12/21 00:13:56;;;;;;;394.58;39.50;;;7.60;99.90;;;;;;5022859;28;20424;-74
2022/12/21 00:16:26;;;;;;;440.48;41.30;;;7.60;99.90;;;;;;5009444;28;20411;-74
2022/12/21 00:18:52;;;;;;;489.52;42.22;;;7.60;99.90;;;;;;5009204;28;20835;-74
2022/12/21 00:21:21;;;;;;;522.40;44.73;;;7.50;99.90;;;;;;5007993;28;20415;-74
2022/12/21 00:23:49;;;;;;;527.17;42.05;;;7.50;99.90;;;;;;5003431;28;20411;-74
2022/12/21 00:26:17;;;;;;;505.10;43.28;;;7.40;99.90;;;;;;5027080;28;20410;-74
2022/12/21 00:28:42;;;;;;;464.87;41.70;;;7.40;99.90;;;;;;5008226;28;20415;-74
2022/12/21 00:31:11;;;;;;;452.02;39.75;;;7.30;99.90;;;;;;5027270;28;20748;-74
2022/12/21 00:33:39;;;;;;;439.42;38.65;;;7.30;99.90;;;;;;5009365;28;20425;-74
2022/12/21 00:36:06;;;;;;;484.58;42.17;;;7.30;99.90;;;;;;5018502;28;20432;-74
2022/12/21 00:38:33;;;;;;;412.58;37.42;;;7.30;99.90;;;;;;5013650;28;20485;-74
2022/12/21 00:41:02;;;;;;;379.33;35.42;;;7.30;99.90;;;;;;4997071;28;20502;-74
2022/12/21 00:43:28;;;;;;;476.92;41.92;;;7.30;99.90;;;;;;5021389;28;20417;-74
2022/12/21 00:45:54;;;;;;;436.23;40.30;;;7.30;99.90;;;;;;5020153;28;20465;-74
2022/12/21 00:48:20;;;;;;;466.85;40.58;;;7.30;99.90;;;;;;5006198;28;20609;-74
2022/12/21 00:50:47;;;;;;;378.38;35.63;;;7.30;99.90;;;;;;5020437;28;20506;-74
2022/12/21 00:53:16;;;;;;;409.38;37.42;;;7.40;99.90;;;;;;5006082;28;20463;-74
2022/12/21 00:55:53;;;;;;;466.25;41.53;;;7.30;99.90;;;;;;5016209;28;20418;-74
2022/12/21 00:58:18;;;;;;;411.25;37.72;;;7.30;99.90;;;;;;5008326;28;20914;-74
2022/12/21 01:00:46;;;;;;;398.23;35.45;;;7.30;99.90;;;;;;5026293;28;20421;-74
2022/12/21 01:03:12;;;;;;;381.70;33.85;;;7.30;99.90;;;;;;5024746;28;20826;-74
2022/12/21 01:05:37;;;;;;;345.10;33.75;;;7.30;99.90;;;;;;5026096;28;20411;-74
2022/12/21 01:08:03;;;;;;;316.60;32.20;;;7.30;99.90;;;;;;5025430;28;20410;-74
2022/12/21 01:10:29;;;;;;;400.83;34.67;;;7.30;99.90;;;;;;5026031;28;20407;-73
2022/12/21 01:12:55;;;;;;;394.38;35.00;;;7.30;99.90;;;;;;5026074;28;20407;-74
2022/12/21 01:15:21;;;;;;;376.15;36.35;;;7.20;99.90;;;;;;5026120;28;20465;-74
2022/12/21 01:17:47;;;;;;;358.63;33.30;;;7.20;99.90;;;;;;5007748;28;20415;-74
2022/12/21 01:20:13;;;;;;;404.08;36.65;;;7.20;99.90;;;;;;5008093;28;20442;-74
2022/12/21 01:22:39;;;;;;;392.20;33.95;;;7.20;99.90;;;;;;5026256;28;20399;-74
2022/12/21 01:25:05;;;;;;;429.27;37.00;;;7.10;99.90;;;;;;5027479;28;20403;-74
2022/12/21 01:27:30;;;;;;;388.60;34.25;;;7.10;99.90;;;;;;5029372;28;20414;-74
2022/12/21 01:29:56;;;;;;;255.85;28.90;;;7.10;99.90;;;;;;5011980;28;20419;-74
2022/12/21 01:32:22;;;;;;;293.93;30.17;;;7.10;99.90;;;;;;5028338;28;20744;-74
2022/12/21 01:34:47;;;;;;;284.63;30.23;;;7.00;99.90;;;;;;5028645;28;20407;-74
2022/12/21 01:37:13;;;;;;;315.50;31.40;;;7.00;99.90;;;;;;5012115;28;20415;-74
2022/12/21 01:39:38;;;;;;;371.73;33.10;;;7.00;99.90;;;;;;5030245;28;20437;-73
2022/12/21 01:42:04;;;;;;;257.33;30.27;;;7.00;99.90;;;;;;5012404;28;20411;-74
2022/12/21 01:44:58;;;;;;;340.57;32.20;;;7.00;99.90;;;;;;5029289;28;20410;-74
2022/12/21 01:47:30;;;;;;;338.45;32.15;;;6.90;99.90;;;;;;5029830;28;20419;-74
2022/12/21 01:50:03;;;;;;;309.23;31.80;;;6.90;99.90;;;;;;5029902;28;20410;-73
2022/12/21 01:52:30;;;;;;;292.42;30.02;;;6.90;99.90;;;;;;5029611;28;20494;-73
2022/12/21 01:55:01;;;;;;;350.57;32.60;;;6.80;99.90;;;;;;5012475;28;20538;-74
2022/12/21 01:57:29;;;;;;;334.42;31.40;;;6.80;99.90;;;;;;5029594;28;20412;-73
2022/12/21 01:59:58;;;;;;;323.27;30.92;;;6.80;99.90;;;;;;5030021;28;20435;-73
2022/12/21 02:02:30;;;;;;;287.63;28.65;;;6.80;99.90;;;;;;5029150;28;20418;-73
2022/12/21 02:05:06;;;;;;;307.10;29.43;;;6.80;99.90;;;;;;5030256;28;20433;-73
2022/12/21 02:07:33;;;;;;;288.52;28.25;;;6.80;99.90;;;;;;5027711;28;20418;-74
2022/12/21 02:09:58;;;;;;;260.50;27.52;;;6.70;99.90;;;;;;5028334;28;20407;-73
2022/12/21 02:12:25;;;;;;;256.13;27.73;;;6.70;99.90;;;;;;5029398;28;20407;-74
2022/12/21 02:14:51;;;;;;;261.53;28.50;;;6.80;99.90;;;;;;5011663;28;20498;-74
2022/12/21 02:17:47;;;;;;;306.03;30.33;;;6.80;99.90;;;;;;5029111;28;20498;-73
2022/12/21 02:21:09;;;;;;;308.42;29.52;;;6.70;99.90;;;;;;5029186;28;20522;-73
2022/12/21 02:24:00;;;;;;;406.73;35.55;;;6.80;99.90;;;;;;4944652;29;20430;-73
2022/12/21 02:26:54;;;;;;;323.75;30.88;;;6.80;99.90;;;;;;5011569;28;20445;-74
2022/12/21 02:29:44;;;;;;;279.20;28.88;;;6.70;99.90;;;;;;5003709;28;20411;-73
2022/12/21 02:32:15;;;;;;;299.38;29.73;;;6.70;99.90;;;;;;5009976;28;20415;-74
2022/12/21 02:35:18;;;;;;;305.00;29.02;;;6.70;99.90;;;;;;5029380;28;20503;-74
2022/12/21 02:37:59;;;;;;;279.27;28.58;;;6.70;99.90;;;;;;5022542;28;21085;-74
2022/12/21 02:40:53;;;;;;;285.13;26.65;;;6.70;99.90;;;;;;5028819;28;20474;-73
2022/12/21 02:46:38;;;;;;;193.32;22.45;;;6.60;99.90;;;;;;5027458;28;20416;-73
2022/12/21 02:49:08;;;;;;;238.20;25.47;;;6.60;99.90;;;;;;5029130;28;20415;-73
2022/12/21 02:51:41;;;;;;;234.63;24.65;;;6.60;99.90;;;;;;5029200;28;20803;-73
2022/12/21 02:54:08;;;;;;;245.32;24.45;;;6.60;99.90;;;;;;4994606;28;20434;-73
2022/12/21 02:56:34;;;;;;;240.48;24.42;;;6.60;99.90;;;;;;5028491;28;20752;-74
2022/12/21 02:59:02;;;;;;;286.17;27.67;;;6.60;99.90;;;;;;4998452;28;20454;-74
2022/12/21 03:01:27;;;;;;;201.80;23.67;;;6.60;99.90;;;;;;5011100;28;20465;-73
2022/12/21 03:04:14;;;;;;;232.83;26.50;;;6.60;99.90;;;;;;5028455;28;20423;-73
2022/12/21 03:07:07;;;;;;;297.40;27.70;;;6.60;99.90;;;;;;5028565;28;20457;-74
2022/12/21 03:09:35;;;;;;;244.98;24.52;;;6.60;99.90;;;;;;5017926;28;20418;-74
2022/12/21 03:12:24;;;;;;;247.30;23.23;;;6.60;99.90;;;;;;5028639;28;20462;-73
2022/12/21 03:15:15;;;;;;;242.73;24.55;;;6.50;99.90;;;;;;5010932;28;20415;-73
2022/12/21 03:17:46;;;;;;;229.68;24.05;;;6.50;99.90;;;;;;5018265;28;20970;-73
2022/12/21 03:20:21;;;;;;;192.52;23.10;;;6.50;99.90;;;;;;4994264;28;20514;-74
2022/12/21 03:23:05;;;;;;;212.67;24.00;;;6.40;99.90;;;;;;4993889;28;20427;-74
2022/12/21 03:25:33;;;;;;;214.63;24.05;;;6.50;99.90;;;;;;5010406;28;20846;-73
2022/12/21 03:28:08;;;;;;;256.63;26.17;;;6.50;99.90;;;;;;5027965;28;20477;-73
2022/12/21 03:30:40;;;;;;;227.53;24.57;;;6.50;99.90;;;;;;5018067;28;20419;-73
2022/12/21 03:33:14;;;;;;;262.33;25.73;;;6.40;99.90;;;;;;5028055;28;20443;-73
2022/12/21 03:35:47;;;;;;;270.80;27.50;;;6.40;99.90;;;;;;5028572;28;20407;-73
2022/12/21 03:38:18;;;;;;;200.13;25.65;;;6.40;99.90;;;;;;5009549;28;20419;-73
2022/12/21 03:40:47;;;;;;;276.08;27.42;;;6.40;99.90;;;;;;5028317;28;20410;-73
2022/12/21 03:43:36;;;;;;;230.95;26.15;;;6.40;99.90;;;;;;5003882;28;20986;-73
2022/12/21 03:46:27;;;;;;;260.08;27.85;;;6.40;99.90;;;;;;5017857;28;20451;-73
2022/12/21 03:48:55;;;;;;;275.33;27.58;;;6.40;99.90;;;;;;5027155;28;20415;-73
2022/12/21 03:51:25;;;;;;;229.23;24.95;;;6.40;99.90;;;;;;5027914;28;20403;-73
2022/12/21 03:54:03;;;;;;;255.95;26.02;;;6.40;99.90;;;;;;5027000;28;20403;-73
2022/12/21 03:56:31;;;;;;;280.55;27.08;;;6.40;99.90;;;;;;4998920;28;20415;-74
2022/12/21 03:58:58;;;;;;;213.90;25.60;;;6.40;99.90;;;;;;5027408;28;20449;-73
2022/12/21 04:01:38;;;;;;;233.73;25.35;;;6.40;99.90;;;;;;5003434;28;20799;-74
2022/12/21 04:04:27;;;;;;;310.60;28.25;;;6.40;99.90;;;;;;5007031;28;20428;-74
2022/12/21 04:06:55;;;;;;;260.15;24.98;;;6.30;99.90;;;;;;5012333;28;20426;-73
2022/12/21 04:09:21;;;;;;;201.95;23.05;;;6.40;99.90;;;;;;5027428;28;20469;-73
2022/12/21 04:14:31;;;;;;;227.65;23.98;;;6.30;99.90;;;;;;5009714;28;20494;-73
2022/12/21 04:16:57;;;;;;;226.82;23.73;;;6.40;99.90;;;;;;5027561;28;20541;-73
2022/12/21 04:22:08;;;;;;;275.23;25.70;;;6.40;99.90;;;;;;5017784;28;20487;-73
2022/12/21 04:30:03;;;;;;;233.07;22.70;;;6.30;99.90;;;;;;5007858;28;20419;-74
2022/12/21 04:32:29;;;;;;;245.73;23.40;;;6.30;99.90;;;;;;5023105;28;20419;-74
2022/12/21 04:34:55;;;;;;;219.80;22.27;;;6.30;99.90;;;;;;5009552;28;20415;-74
2022/12/21 04:37:33;;;;;;;159.25;19.58;;;6.30;99.90;;;;;;5009191;28;20937;-74
2022/12/21 04:39:59;;;;;;;216.87;23.07;;;6.30;99.90;;;;;;5009594;28;20435;-74
2022/12/21 04:42:25;;;;;;;214.97;21.70;;;6.20;99.90;;;;;;5009092;28;20879;-73
2022/12/21 04:44:51;;;;;;;234.60;22.50;;;6.20;99.90;;;;;;5027396;28;20415;-74
2022/12/21 04:47:17;;;;;;;239.15;23.02;;;6.30;99.90;;;;;;5027314;28;20407;-74
2022/12/21 04:49:43;;;;;;;271.60;24.38;;;6.30;99.90;;;;;;5008965;28;20418;-74
2022/12/21 04:52:09;;;;;;;196.80;19.98;;;6.20;99.90;;;;;;5008735;28;21131;-74
2022/12/21 04:54:34;;;;;;;184.53;18.77;;;6.20;99.90;;;;;;5009280;28;20461;-74
2022/12/21 04:57:00;;;;;;;173.90;17.55;;;6.10;99.90;;;;;;4992200;28;20787;-74
2022/12/21 04:59:26;;;;;;;193.40;18.13;;;6.10;99.90;;;;;;5025266;28;20960;-74
2022/12/21 05:01:51;;;;;;;144.63;15.23;;;6.10;99.90;;;;;;5030308;28;20489;-74
2022/12/21 05:04:17;;;;;;;171.48;17.25;;;6.10;99.90;;;;;;5013182;28;20414;-74
2022/12/21 05:06:43;;;;;;;209.20;19.10;;;6.00;99.90;;;;;;5030800;28;20403;-74
2022/12/21 05:09:11;;;;;;;175.10;17.85;;;6.00;99.90;;;;;;5030863;28;20614;-74
2022/12/21 05:11:37;;;;;;;169.13;17.23;;;6.00;99.90;;;;;;5030583;28;20414;-74
2022/12/21 05:14:02;;;;;;;164.00;17.93;;;6.00;99.90;;;;;;5031226;28;20548;-74
2022/12/21 05:16:28;;;;;;;174.43;18.52;;;6.00;99.90;;;;;;5013235;28;20407;-74
2022/12/21 05:18:54;;;;;;;133.83;17.67;;;6.00;99.90;;;;;;5030263;28;20457;-74
2022/12/21 05:21:20;;;;;;;193.93;20.38;;;6.00;99.90;;;;;;5030815;28;20983;-74
2022/12/21 05:23:46;;;;;;;204.30;20.50;;;6.00;99.90;;;;;;5021330;28;20407;-74
2022/12/21 05:26:12;;;;;;;170.73;18.92;;;6.00;99.90;;;;;;5030581;28;20405;-74
2022/12/21 05:28:38;;;;;;;214.23;21.53;;;6.00;99.90;;;;;;5030375;28;20445;-74
2022/12/21 05:31:05;;;;;;;203.85;19.92;;;6.00;99.90;;;;;;5012617;28;20414;-74
2022/12/21 05:33:31;;;;;;;171.50;19.20;;;6.00;99.90;;;;;;5030168;28;21177;-73
2022/12/21 05:35:56;;;;;;;198.10;19.87;;;6.00;99.90;;;;;;5030988;28;20415;-74
2022/12/21 05:38:24;;;;;;;190.80;18.63;;;6.10;99.90;;;;;;5009129;28;20514;-74
2022/12/21 05:40:50;;;;;;;210.32;19.00;;;6.10;99.90;;;;;;5029363;28;20414;-74
2022/12/21 05:43:16;;;;;;;175.20;18.23;;;6.10;99.90;;;;;;5030112;28;20411;-74
2022/12/21 05:45:42;;;;;;;170.67;18.33;;;6.10;99.90;;;;;;5029554;28;20410;-74
2022/12/21 05:48:08;;;;;;;214.85;18.52;;;6.10;99.90;;;;;;5030103;28;20990;-74
2022/12/21 05:50:33;;;;;;;205.23;19.47;;;6.20;99.90;;;;;;5029743;28;20500;-74
2022/12/21 05:52:59;;;;;;;228.55;19.77;;;6.20;99.90;;;;;;5030086;28;20550;-74
2022/12/21 05:55:25;;;;;;;231.63;19.53;;;6.20;99.90;;;;;;5029590;28;20778;-74
2022/12/21 05:57:50;;;;;;;202.05;18.70;;;6.20;99.90;;;;;;5029886;28;20407;-74
2022/12/21 06:00:16;;;;;;;212.40;19.50;;;6.20;99.90;;;;;;5029689;28;20434;-74
2022/12/21 06:02:42;;;;;;;206.70;18.90;;;6.20;99.90;;;;;;5029864;28;20794;-74
2022/12/21 06:05:08;;;;;;;177.45;17.98;;;6.20;99.90;;;;;;5029827;28;20410;-74
2022/12/21 06:07:34;;;;;;;161.88;16.75;;;6.20;99.90;;;;;;5029547;28;20402;-74
2022/12/21 06:10:00;;;;;;;181.93;18.77;;;6.30;99.90;;;;;;5028526;28;20415;-74
2022/12/21 06:12:28;;;;;;;176.95;17.73;;;6.30;99.90;;;;;;5028812;28;20805;-74
2022/12/21 06:14:54;;;;;;;185.37;18.73;;;6.30;99.90;;;;;;5029582;28;20438;-74
2022/12/21 06:17:20;;;;;;;183.53;17.73;;;6.30;99.90;;;;;;5028654;28;20942;-74
2022/12/21 06:19:46;;;;;;;166.98;17.33;;;6.30;99.90;;;;;;5011015;28;20988;-74
2022/12/21 06:22:14;;;;;;;159.97;16.33;;;6.20;99.90;;;;;;5027425;28;20502;-74
2022/12/21 06:24:39;;;;;;;170.50;17.15;;;6.20;99.90;;;;;;5028116;28;20401;-74
2022/12/21 06:27:05;;;;;;;177.67;17.63;;;6.20;99.90;;;;;;5027214;28;20782;-73
2022/12/21 06:29:31;;;;;;;198.90;19.27;;;6.20;99.90;;;;;;5028526;28;20399;-74
2022/12/21 06:31:56;;;;;;;192.73;18.13;;;6.20;99.90;;;;;;5028536;28;20422;-74
2022/12/21 06:34:22;;;;;;;190.35;18.88;;;6.20;99.90;;;;;;5006129;28;20562;-74
2022/12/21 06:36:48;;;;;;;177.07;18.00;;;6.10;99.90;;;;;;5026638;28;20426;-75
2022/12/21 06:39:13;;;;;;;135.07;16.50;;;6.10;99.90;;;;;;5025508;28;20441;-74
2022/12/21 06:41:39;;;;;;;161.07;17.63;;;6.10;99.90;;;;;;5026345;28;20427;-74
2022/12/21 06:44:04;;;;;;;135.63;17.67;;;6.10;99.90;;;;;;5024067;28;20787;-74
2022/12/21 06:46:30;;;;;;;188.48;19.55;;;6.10;99.90;;;;;;5027371;28;20410;-74
2022/12/21 06:48:56;;;;;;;206.10;21.40;;;6.10;99.90;;;;;;5005785;28;20419;-74
2022/12/21 06:51:23;;;;;;;185.68;20.48;;;6.10;99.90;;;;;;5009820;28;20407;-74
2022/12/21 06:53:51;;;;;;;159.48;19.92;;;6.10;99.90;;;;;;5028200;28;20400;-74
2022/12/21 06:56:19;;;;;;;192.65;20.42;;;6.10;99.90;;;;;;5028264;28;20918;-74
2022/12/21 06:58:46;;;;;;;169.63;19.53;;;6.10;99.90;;;;;;5028244;28;20531;-74
2022/12/21 07:01:15;;;;;;;172.43;19.65;;;6.20;99.90;;;;;;5010582;28;20426;-74
2022/12/21 07:03:41;;;;;;;157.38;19.33;;;6.10;99.90;;;;;;5025616;28;20411;-74
2022/12/21 07:06:08;;;;;;;229.32;21.33;;;6.20;99.90;;;;;;5021102;28;20456;-74
2022/12/21 07:08:34;;;;;;;236.40;22.80;;;6.10;99.90;;;;;;5026123;28;20906;-74
2022/12/21 07:11:08;;;;;;;216.90;22.17;;;6.10;99.90;;;;;;5009059;28;20819;-74
2022/12/21 07:13:35;;;;;;;243.85;22.13;;;6.20;99.90;;;;;;5008693;28;20601;-74
2022/12/21 07:16:01;;;;;;;223.35;22.58;;;6.20;99.90;;;;;;5026772;28;20403;-74
2022/12/21 07:18:27;;;;;;;249.70;23.77;;;6.20;99.90;;;;;;5028264;28;20410;-74
2022/12/21 07:20:57;;;;;;;248.90;23.67;;;6.20;99.90;;;;;;5009859;28;20854;-74
2022/12/21 07:23:24;;;;;;;248.95;21.90;;;6.20;99.90;;;;;;5008491;28;20477;-75
2022/12/21 07:25:49;;;;;;;267.30;25.05;;;6.20;99.90;;;;;;5007496;28;20493;-75
2022/12/21 07:28:15;;;;;;;258.60;24.85;;;6.20;99.90;;;;;;4993809;28;20846;-75
2022/12/21 07:30:40;;;;;;;248.77;23.97;;;6.20;99.90;;;;;;5010214;28;20403;-75
2022/12/21 07:33:06;;;;;;;247.98;23.55;;;6.20;99.90;;;;;;5023124;28;20441;-75
2022/12/21 07:35:32;;;;;;;234.07;22.80;;;6.20;99.90;;;;;;5021219;28;20395;-74
2022/12/21 07:37:57;;;;;;;297.92;26.08;;;6.30;99.90;;;;;;5009631;28;20438;-75
2022/12/21 07:40:23;;;;;;;318.20;28.23;;;6.20;99.90;;;;;;5010309;28;20435;-74
2022/12/21 07:42:48;;;;;;;298.37;26.03;;;6.30;99.90;;;;;;5009414;28;20415;-74
2022/12/21 07:45:15;;;;;;;268.85;26.48;;;6.30;99.90;;;;;;5026160;28;20413;-74
2022/12/21 07:47:41;;;;;;;268.33;27.95;;;6.30;99.90;;;;;;5007957;28;20508;-74
2022/12/21 07:50:08;;;;;;;293.33;28.42;;;6.30;99.90;;;;;;5007666;28;20427;-74
2022/12/21 07:52:34;;;;;;;242.40;27.83;;;6.30;99.90;;;;;;4993385;28;20411;-75
2022/12/21 07:55:00;;;;;;;224.10;26.67;;;6.30;99.90;;;;;;5011565;28;20418;-74
2022/12/21 07:57:26;;;;;;;249.90;27.90;;;6.30;99.90;;;;;;5025285;28;20423;-75
2022/12/21 07:59:51;;;;;;;265.23;28.83;;;6.30;99.90;;;;;;5027017;28;20504;-74
2022/12/21 08:02:17;;;;;;;304.73;30.40;;;6.30;99.90;;;;;;5007725;28;20427;-74
2022/12/21 08:04:42;;;;;;;285.63;29.75;;;6.40;99.90;;;;;;5014774;28;20454;-74
2022/12/21 08:07:08;;;;;;;290.93;31.33;;;6.40;99.90;;;;;;5009044;28;20435;-74
2022/12/21 08:09:34;;;;;;;323.50;33.03;;;6.40;99.90;;;;;;5008116;28;20850;-73
2022/12/21 08:12:01;;;;;;;290.17;31.40;;;6.40;99.90;;;;;;5009537;28;20403;-74
2022/12/21 08:14:26;;;;;;;283.40;32.47;;;6.40;99.90;;;;;;5003859;28;20427;-75
2022/12/21 08:16:52;;;;;;;305.42;33.83;;;6.40;99.90;;;;;;5026892;28;20485;-75
2022/12/21 08:19:18;;;;;;;237.27;32.70;;;6.40;99.90;;;;;;5027286;28;20515;-75
2022/12/21 08:21:43;;;;;;;267.63;33.65;;;6.40;99.90;;;;;;5009455;28;20794;-74
2022/12/21 08:24:09;;;;;;;275.70;32.83;;;6.40;99.90;;;;;;5026794;28;20423;-74
2022/12/21 08:26:34;;;;;;;308.90;34.80;;;6.40;99.90;;;;;;5007955;28;20465;-74
2022/12/21 08:29:00;;;;;;;257.58;31.83;;;6.50;99.90;;;;;;5026561;28;20482;-74
2022/12/21 08:31:26;;;;;;;285.80;34.00;;;6.50;99.90;;;;;;5025822;28;20506;-74
2022/12/21 08:33:52;;;;;;;273.17;33.55;;;6.50;99.90;;;;;;5008609;28;20914;-74
2022/12/21 08:36:21;;;;;;;343.10;37.58;;;6.50;99.90;;;;;;5026997;28;20415;-75
2022/12/21 08:38:47;;;;;;;357.00;37.33;;;6.50;99.90;;;;;;5026713;28;20427;-75
2022/12/21 08:41:14;;;;;;;321.70;36.47;;;6.50;99.90;;;;;;5025752;28;20500;-74
2022/12/21 08:43:40;;;;;;;320.02;36.92;;;6.60;99.90;;;;;;5006069;28;20467;-74
2022/12/21 08:46:08;;;;;;;367.13;38.83;;;6.60;99.90;;;;;;5025225;28;20427;-74
2022/12/21 08:48:34;;;;;;;281.42;35.25;;;6.60;99.90;;;;;;5016645;28;20486;-74
2022/12/21 08:51:02;;;;;;;269.38;36.00;;;6.60;99.90;;;;;;5026114;28;20407;-74
2022/12/21 08:53:28;;;;;;;293.63;36.38;;;6.60;99.90;;;;;;5027092;28;20399;-74
2022/12/21 08:55:54;;;;;;;440.48;43.55;;;6.60;99.90;;;;;;5026246;28;20763;-74
2022/12/21 08:58:21;;;;;;;407.38;41.40;;;6.50;99.90;;;;;;5009372;28;21384;-74
2022/12/21 09:00:47;;;;;;;408.58;41.22;;;6.60;99.90;;;;;;5026510;28;20413;-74
2022/12/21 09:03:12;;;;;;;383.20;42.20;;;6.60;99.90;;;;;;5007609;28;20430;-74
2022/12/21 09:05:38;;;;;;;340.83;39.92;;;6.60;99.90;;;;;;5027137;28;20453;-74
2022/12/21 09:08:05;;;;;;;373.53;40.23;;;6.60;99.90;;;;;;5009482;28;20756;-74
2022/12/21 09:10:33;;;;;;;377.60;43.00;;;6.60;99.90;;;;;;5008299;28;21306;-74
2022/12/21 09:12:59;;;;;;;380.45;42.42;;;6.70;99.90;;;;;;5005986;28;20420;-74
2022/12/21 09:15:25;;;;;;;411.65;45.30;;;6.70;99.90;;;;;;5022693;28;20403;-74
2022/12/21 09:17:50;;;;;;;319.90;39.10;;;6.70;99.90;;;;;;5026326;28;20723;-74
2022/12/21 09:20:17;;;;;;;308.63;39.58;;;6.80;99.90;;;;;;4992599;28;20518;-74
2022/12/21 09:22:42;;;;;;;399.55;44.80;;;6.80;99.90;;;;;;5027043;28;20414;-74
2022/12/21 09:25:08;;;;;;;336.90;42.40;;;6.80;99.90;;;;;;5026155;28;20407;-74
2022/12/21 09:27:34;;;;;;;367.30;42.25;;;6.80;99.90;;;;;;5026912;28;20430;-74
2022/12/21 09:30:00;;;;;;;418.13;45.85;;;6.90;99.90;;;;;;5006995;28;20503;-74
2022/12/21 09:32:25;;;;;;;337.17;41.83;;;6.90;99.90;;;;;;5026715;28;20407;-74
2022/12/21 09:34:51;;;;;;;232.75;37.15;;;6.90;99.90;;;;;;5006763;28;20424;-74
2022/12/21 09:37:17;;;;;;;236.75;36.97;;;6.90;99.90;;;;;;5026854;28;20494;-74
2022/12/21 09:39:44;;;;;;;276.67;39.33;;;7.00;99.90;;;;;;5006556;28;20445;-74
2022/12/21 09:42:31;;;;;;;331.73;41.17;;;7.00;99.90;;;;;;5026626;28;20399;-74
2022/12/21 09:45:19;;;;;;;230.27;37.90;;;7.00;99.90;;;;;;5023810;28;20423;-74
2022/12/21 09:47:53;;;;;;;238.02;37.92;;;7.00;99.90;;;;;;5029495;28;20407;-74
2022/12/21 09:50:25;;;;;;;167.75;33.50;;;7.10;99.90;;;;;;5009183;28;20546;-74
2022/12/21 09:53:25;;;;;;;175.50;34.28;;;7.10;99.90;;;;;;4995709;28;20418;-74
2022/12/21 09:55:53;;;;;;;154.32;33.33;;;7.10;99.90;;;;;;4990907;28;20421;-74
2022/12/21 09:58:30;;;;;;;145.38;32.97;;;7.10;99.90;;;;;;5029966;28;20407;-74
2022/12/21 10:01:16;;;;;;;147.57;32.88;;;7.10;99.90;;;;;;5029087;28;20407;-74
2022/12/21 10:04:06;;;;;;;143.75;33.60;;;7.10;99.90;;;;;;5011972;28;20415;-74
2022/12/21 10:07:09;;;;;;;144.75;32.95;;;7.10;99.90;;;;;;5019987;28;20419;-74
2022/12/21 10:09:47;;;;;;;144.85;32.92;;;7.10;99.90;;;;;;5007578;28;20559;-74
2022/12/21 10:12:12;;;;;;;125.35;32.47;;;7.10;99.90;;;;;;5024530;28;20415;-74
2022/12/21 10:15:17;;;;;;;125.85;31.88;;;7.20;99.90;;;;;;5029577;28;20411;-74
2022/12/21 10:18:01;;;;;;;119.10;32.20;;;7.20;99.90;;;;;;5011218;28;20498;-74
2022/12/21 10:20:48;;;;;;;136.10;33.40;;;7.20;99.90;;;;;;5029553;28;20438;-74
2022/12/21 10:23:27;;;;;;;119.23;32.13;;;7.20;99.90;;;;;;5022001;28;20427;-74
2022/12/21 10:25:59;;;;;;;128.93;32.40;;;7.30;99.90;;;;;;5027352;28;20494;-74
2022/12/21 10:28:40;;;;;;;121.72;34.20;;;7.30;99.90;;;;;;5011537;28;20412;-74
2022/12/21 10:31:08;;;;;;;117.53;32.90;;;7.30;99.90;;;;;;5019712;28;20446;-74
2022/12/21 10:33:40;;;;;;;119.47;32.10;;;7.40;99.90;;;;;;5028817;28;20411;-74
2022/12/21 10:36:09;;;;;;;119.35;34.00;;;7.40;99.90;;;;;;4995128;28;20492;-74
2022/12/21 10:38:35;;;;;;;111.43;31.67;;;7.40;99.90;;;;;;5011026;28;20443;-74
2022/12/21 10:41:08;;;;;;;111.35;31.95;;;7.50;99.90;;;;;;5028904;28;20500;-74
2022/12/21 10:43:38;;;;;;;103.97;31.07;;;7.50;99.90;;;;;;5029025;28;20453;-74
2022/12/21 10:46:05;;;;;;;110.90;32.05;;;7.50;99.90;;;;;;5029019;28;20834;-74
2022/12/21 10:48:33;;;;;;;117.43;32.60;;;7.50;99.90;;;;;;5026151;28;20403;-74
2022/12/21 10:51:32;;;;;;;112.03;32.35;;;7.60;99.90;;;;;;5010897;28;20407;-74
2022/12/21 10:53:59;;;;;;;100.05;31.27;;;7.60;99.90;;;;;;4987385;28;20419;-74
2022/12/21 10:56:26;;;;;;;107.28;31.85;;;7.60;99.90;;;;;;5028087;28;20430;-74
2022/12/21 10:58:53;;;;;;;102.23;31.70;;;7.60;99.90;;;;;;5029010;28;20422;-74
2022/12/21 11:01:28;;;;;;;102.82;32.63;;;7.60;99.90;;;;;;5028612;28;20945;-74
2022/12/21 11:04:17;;;;;;;94.07;32.63;;;7.60;99.90;;;;;;5011217;28;20802;-74
2022/12/21 11:07:05;;;;;;;95.87;32.17;;;7.70;99.90;;;;;;5027403;28;20445;-74
2022/12/21 11:09:35;;;;;;;90.75;31.25;;;7.70;99.90;;;;;;5027905;28;20428;-74
2022/12/21 11:12:22;;;;;;;90.03;31.25;;;7.80;99.90;;;;;;5028406;28;20407;-74
2022/12/21 11:14:52;;;;;;;83.17;30.77;;;7.80;99.90;;;;;;5020710;28;20934;-74
2022/12/21 11:17:21;;;;;;;86.10;30.52;;;7.80;99.90;;;;;;5027596;28;20462;-74
2022/12/21 11:19:49;;;;;;;88.57;31.40;;;7.80;99.90;;;;;;5006861;28;20463;-74
2022/12/21 11:22:22;;;;;;;85.10;30.67;;;7.90;99.90;;;;;;5006855;28;20812;-74
2022/12/21 11:24:52;;;;;;;81.53;31.30;;;8.10;99.90;;;;;;5004589;28;20918;-74
2022/12/21 11:27:31;;;;;;;82.47;30.30;;;8.20;99.90;;;;;;5028004;28;20403;-74
2022/12/21 11:30:05;;;;;;;72.80;30.33;;;8.30;99.90;;;;;;5027218;28;20415;-74
2022/12/21 11:32:32;;;;;;;70.60;28.63;;;8.50;99.90;;;;;;5010609;28;20427;-74
2022/12/21 11:35:01;;;;;;;59.42;25.45;;;8.60;99.90;;;;;;5010152;28;20443;-74
2022/12/21 11:37:35;;;;;;;56.97;24.17;;;8.70;99.90;;;;;;5028482;28;20434;-74
2022/12/21 11:40:29;;;;;;;50.72;24.80;;;8.70;99.90;;;;;;5027400;28;20437;-74
2022/12/21 11:43:02;;;;;;;55.92;25.05;;;8.70;99.90;;;;;;5007357;28;20419;-74
2022/12/21 11:46:05;;;;;;;56.83;25.67;;;8.70;99.90;;;;;;5010615;28;20407;-74
2022/12/21 11:48:48;;;;;;;47.08;22.23;;;8.90;99.90;;;;;;5028089;28;20419;-74
2022/12/21 11:51:26;;;;;;;47.45;21.73;;;9.00;99.90;;;;;;5027961;28;20975;-74
2022/12/21 11:54:19;;;;;;;47.15;20.52;;;9.00;99.90;;;;;;5028402;28;20447;-74
2022/12/21 11:57:19;;;;;;;41.72;19.95;;;9.00;99.90;;;;;;4998765;28;20442;-74
2022/12/21 12:00:01;;;;;;;41.08;19.60;;;9.00;99.90;;;;;;5029120;28;20435;-74
2022/12/21 12:03:11;;;;;;;42.63;19.17;;;8.80;99.90;;;;;;5027746;28;20837;-74
2022/12/21 12:05:52;;;;;;;42.35;18.75;;;8.70;99.90;;;;;;5027694;28;20487;-74
2022/12/21 12:08:37;;;;;;;48.17;19.92;;;8.70;99.90;;;;;;5027284;28;20530;-74
2022/12/21 12:11:14;;;;;;;44.35;20.50;;;8.60;99.90;;;;;;5009323;28;20428;-74
2022/12/21 12:13:51;;;;;;;41.28;18.80;;;8.80;99.90;;;;;;5027488;28;20411;-74
2022/12/21 12:16:32;;;;;;;36.37;17.10;;;9.00;99.90;;;;;;5016778;28;20407;-74
2022/12/21 12:19:13;;;;;;;39.00;18.05;;;9.10;99.90;;;;;;5009041;28;20431;-74
2022/12/21 12:21:41;;;;;;;38.10;17.05;;;9.20;99.90;;;;;;5026920;28;20423;-74
2022/12/21 12:24:35;;;;;;;37.55;17.40;;;9.20;99.90;;;;;;5009071;28;20415;-74
2022/12/21 12:27:13;;;;;;;37.90;17.45;;;9.30;99.90;;;;;;5027427;28;20485;-74
2022/12/21 12:29:57;;;;;;;36.65;16.48;;;9.60;99.90;;;;;;5026177;28;20443;-74
2022/12/21 12:32:58;;;;;;;36.65;17.13;;;9.60;99.90;;;;;;5014926;28;20910;-74
2022/12/21 12:35:36;;;;;;;39.55;16.40;;;9.50;99.90;;;;;;4979770;28;20506;-74
2022/12/21 12:38:19;;;;;;;36.65;16.30;;;9.50;99.90;;;;;;5026885;28;20422;-74
2022/12/21 12:40:51;;;;;;;38.30;16.58;;;9.40;99.90;;;;;;4999117;28;20446;-74
2022/12/21 12:43:52;;;;;;;40.42;17.40;;;9.30;99.90;;;;;;5009272;28;20407;-74
2022/12/21 12:46:24;;;;;;;37.05;16.65;;;9.20;99.90;;;;;;5026883;28;20430;-74
2022/12/21 12:49:16;;;;;;;34.97;15.68;;;9.20;99.90;;;;;;5009552;28;20457;-74
2022/12/21 12:51:54;;;;;;;38.85;16.60;;;9.40;99.90;;;;;;5027347;28;20411;-74
2022/12/21 12:54:44;;;;;;;36.60;15.90;;;9.40;99.90;;;;;;5008933;28;20423;-74
2022/12/21 12:57:10;;;;;;;36.78;16.13;;;9.40;99.90;;;;;;5018800;28;21005;-74
2022/12/21 13:00:07;;;;;;;39.30;16.37;;;9.30;99.90;;;;;;5027064;28;20462;-74
2022/12/21 13:02:41;;;;;;;34.70;15.00;;;9.40;99.90;;;;;;5009251;28;20422;-74
2022/12/21 13:05:09;;;;;;;38.53;15.20;;;9.50;99.90;;;;;;5000255;28;20427;-74